METAR Data
IDs: Format: Raw Decoded Include TAF

Data at: 0223 UTC 24 Sep 2018

KRBO 240215Z AUTO 08004KT 10SM CLR 26/21 A2988 RMK AO2 T02610207
KRBO 240155Z AUTO 06005KT 10SM CLR 26/21 A2987 RMK AO2 T02620207
KRBO 240135Z AUTO 00000KT 10SM CLR 27/21 A2987 RMK AO2 T02660210
KRBO 240115Z AUTO 00000KT 10SM CLR 27/21 A2986 RMK AO2 T02690205
KRBO 240055Z AUTO 00000KT 10SM CLR 27/21 A2986 RMK AO2 T02700208
KRBO 240035Z AUTO 01003KT 10SM CLR 27/21 A2985 RMK AO2 T02730212
KRBO 240015Z AUTO 00000KT 10SM CLR 28/21 A2985 RMK AO2 T02810206
KRBO 232355Z AUTO 36006KT 10SM CLR 29/20 A2985 RMK AO2 T02910196 10306 20272
KRBO 232335Z AUTO 31005KT 10SM CLR 29/20 A2985 RMK AO2 T02940195
KRBO 232315Z AUTO 34004KT 10SM CLR 30/20 A2985 RMK AO2 T02970196
KRBO 232255Z AUTO 32007KT 10SM CLR 30/20 A2985 RMK AO2 T02990197
KRBO 232235Z AUTO 33006KT 10SM CLR 30/20 A2985 RMK AO2 T03020198
KRBO 232215Z AUTO 32006KT 10SM SCT043 30/19 A2985 RMK AO2 T02990194
KRBO 232155Z AUTO 32008KT 10SM SCT043 30/20 A2985 RMK AO2 T02970199
KRBO 232135Z AUTO 29007KT 10SM SCT043 30/20 A2985 RMK AO2 T03010199
KRBO 232115Z AUTO 29006G14KT 10SM SCT043 31/20 A2985 RMK AO2 T03050199
KRBO 232055Z AUTO 29004KT 10SM SCT041 30/20 A2986 RMK AO2 T03040197
KRBO 232035Z AUTO 27007KT 10SM CLR 30/20 A2987 RMK AO2 T03010196
KRBO 232015Z AUTO 28004KT 10SM CLR 30/20 A2988 RMK AO2 T03010201
KRBO 231955Z AUTO 29007KT 10SM CLR 29/19 A2989 RMK AO2 T02910193
KRBO 231935Z AUTO 28003KT 10SM CLR 29/20 A2990 RMK AO2 T02930195
KRBO 231915Z AUTO 30007KT 10SM CLR 29/19 A2992 RMK AO2 T02870193
KRBO 231855Z AUTO 00000KT 10SM SCT034 29/19 A2993 RMK AO2 T02850193
KRBO 231835Z AUTO 31004KT 10SM SCT032 28/19 A2994 RMK AO2 T02820194
KRBO 231815Z AUTO 26005KT 10SM SCT032 28/19 A2995 RMK AO2 T02760193
KRBO 231755Z AUTO 27005KT 10SM SCT032 28/19 A2996 RMK AO2 T02750192 10276 20203
KRBO 231735Z AUTO 27005KT 10SM SCT032 27/19 A2997 RMK AO2 T02710188
KRBO 231715Z AUTO 28004KT 10SM SCT030 26/18 A2997 RMK AO2 T02620184
KRBO 231655Z AUTO 26003KT 10SM SCT030 26/18 A2998 RMK AO2 T02630184
KRBO 231635Z AUTO 27005KT 10SM SCT028 26/18 A2998 RMK AO2 T02610184
KRBO 231615Z AUTO 28008KT 10SM SCT028 26/19 A2998 RMK AO2 T02570186
KRBO 231555Z AUTO 31008KT 10SM CLR 25/18 A2998 RMK AO2 T02540184
KRBO 231535Z AUTO 30006KT 10SM SCT100 25/18 A2997 RMK AO2 T02520181
KRBO 231515Z AUTO 30006KT 10SM SCT100 25/18 A2997 RMK AO2 T02490184
KRBO 231455Z AUTO 31006KT 10SM CLR 24/18 A2997 RMK AO2 T02430181
KRBO 231435Z AUTO 32007KT 10SM CLR 24/18 A2997 RMK AO2 T02390182
KRBO 231415Z AUTO 31005KT 10SM CLR 24/19 A2996 RMK AO2 T02350186
KRBO 231355Z AUTO 30005KT 10SM CLR 23/19 A2996 RMK AO2 T02280189
KRBO 231335Z AUTO 32003KT 10SM CLR 22/19 A2995 RMK AO2 T02220191
KRBO 231315Z AUTO 31004KT 10SM CLR 22/20 A2994 RMK AO2 T02150195
KRBO 231255Z AUTO 30004KT 10SM SCT120 21/20 A2994 RMK AO2 T02090195
KRBO 231235Z AUTO 30005KT 10SM CLR 21/19 A2994 RMK AO2 LTG DSNT E T02050191
KRBO 231215Z AUTO 28003KT 10SM CLR 21/19 A2994 RMK AO2 T02050192
KRBO 231155Z AUTO 00000KT 10SM CLR 21/19 A2993 RMK AO2 T02060190 10242 20206
KRBO 231135Z AUTO 00000KT 10SM CLR 21/19 A2992 RMK AO2 T02080190
KRBO 231115Z AUTO 00000KT 10SM CLR 21/19 A2992 RMK AO2 T02080190
KRBO 231055Z AUTO 00000KT 10SM SCT120 21/19 A2992 RMK AO2 LTG DSNT SE T02080188
KRBO 231035Z AUTO 00000KT 10SM SCT120 21/19 A2992 RMK AO2 T02100190
KRBO 231015Z AUTO 00000KT 10SM CLR 21/19 A2992 RMK AO2 T02110188
KRBO 230955Z AUTO 00000KT 10SM CLR 21/19 A2992 RMK AO2 T02120190
KRBO 230935Z AUTO 00000KT 10SM CLR 21/19 A2992 RMK AO2 T02130189
KRBO 230915Z AUTO 00000KT 10SM CLR 22/19 A2992 RMK AO2 T02150188
KRBO 230850Z AUTO 00000KT 10SM CLR 22/19 A2993 RMK AO2 LTG DSNT E AND SE T02160190
KRBO 230835Z AUTO 00000KT 10SM SCT100 22/19 A2993 RMK AO2 T02160190
KRBO 230815Z AUTO 36004KT 10SM CLR 22/19 A2994 RMK AO2 T02200190
KRBO 230755Z AUTO 35006KT 10SM CLR 22/19 A2994 RMK AO2 LTG DSNT SE T02220190
KRBO 230735Z AUTO 34007KT 10SM SCT110 23/19 A2993 RMK AO2 LTG DSNT NE AND SE T02280193
KRBO 230715Z AUTO 34006KT 10SM BKN044 BKN110 24/21 A2994 RMK AO2 LTG DSNT SE T02350205
KRBO 230655Z AUTO 34006KT 10SM OVC042 24/21 A2994 RMK AO2 T02400205
KRBO 230635Z AUTO 34005KT 10SM OVC040 24/21 A2994 RMK AO2 LTG DSNT SE T02400206
KRBO 230615Z AUTO 33004KT 10SM OVC040 24/21 A2995 RMK AO2 T02410206
KRBO 230555Z AUTO 32004KT 10SM OVC040 24/21 A2995 RMK AO2 T02420206 10277 20241 403060241
KRBO 230535Z AUTO 32005KT 10SM OVC038 24/21 A2995 RMK AO2 T02420207
KRBO 230515Z AUTO 33003KT 10SM OVC038 24/21 A2995 RMK AO2 LTG DSNT SE T02410211
KRBO 230455Z AUTO 33005KT 10SM OVC038 24/21 A2994 RMK AO2 LTG DSNT SE T02420212
KRBO 230435Z AUTO 33006KT 10SM OVC038 25/21 A2995 RMK AO2 LTG DSNT SE T02450213
KRBO 230415Z AUTO 31004KT 10SM BKN038 25/22 A2995 RMK AO2 T02460215
KRBO 230355Z AUTO 31004KT 10SM SCT036 25/22 A2995 RMK AO2 T02460215
KRBO 230335Z AUTO 31006KT 10SM BKN036 25/22 A2994 RMK AO2 T02500216
KRBO 230315Z AUTO 32005KT 10SM OVC036 25/22 A2994 RMK AO2 LTG DSNT E AND SE T02500218
KRBO 230255Z AUTO 31004KT 10SM BKN036 25/22 A2994 RMK AO2 LTG DSNT SE T02510218
KRBO 230235Z AUTO 33004KT 10SM CLR 25/22 A2994 RMK AO2 LTG DSNT E AND SE T02520219
KRBO 230215Z AUTO 32005KT 10SM CLR 25/22 A2993 RMK AO2 LTG DSNT SE T02520222
KRBO 230155Z AUTO 32006KT 10SM CLR 25/23 A2992 RMK AO2 LTG DSNT E AND SE T02540225
KRBO 230135Z AUTO 32005KT 10SM SCT090 26/22 A2991 RMK AO2 LTG DSNT E AND SE T02600223
KRBO 230115Z AUTO 31006KT 10SM SCT029 BKN090 26/22 A2991 RMK AO2 LTG DSNT E THRU S T02630221
KRBO 230055Z AUTO 32005KT 10SM BKN029 BKN090 27/22 A2990 RMK AO2 LTG DSNT E THRU S T02660220
KRBO 230035Z AUTO 32007KT 10SM SCT029 SCT095 27/22 A2990 RMK AO2 LTG DSNT SE T02670218
KRBO 230015Z AUTO 33007KT 10SM SCT032 27/22 A2990 RMK AO2 T02710221
KRBO 222355Z AUTO 32009KT 10SM SCT032 28/22 A2989 RMK AO2 LTG DSNT SE T02770219 10306 20275
KRBO 222335Z AUTO 31009KT 10SM SCT025 SCT030 SCT090 28/22 A2989 RMK AO2 LTG DSNT E THRU S T02770224
KRBO 222315Z AUTO 32009KT 10SM SCT027 SCT040 BKN090 28/23 A2988 RMK AO2 LTG DSNT SE T02800225
KRBO 222255Z AUTO 33009KT 10SM SCT040 BKN090 28/23 A2988 RMK AO2 LTG DSNT SE T02800229
KRBO 222235Z AUTO 33010KT 10SM SCT020 SCT090 28/23 A2988 RMK AO2 T02800231
KRBO 222215Z AUTO 32011KT 10SM SCT020 29/23 A2988 RMK AO2 T02870233
KRBO 222155Z AUTO 32011KT 10SM SCT020 29/24 A2988 RMK AO2 T02900236
KRBO 222135Z AUTO 32009KT 10SM SCT018 SCT026 BKN075 29/24 A2988 RMK AO2 LTG DSNT NE T02900240
KRBO 222115Z AUTO 33009KT 10SM SCT035 BKN060 OVC070 29/24 A2989 RMK AO2 T02860239
KRBO 222055Z AUTO 32009KT 10SM SCT028 BKN037 OVC070 30/24 A2989 RMK AO2 T02990237
KRBO 222035Z AUTO 31008KT 10SM SCT028 BKN035 BKN047 30/24 A2989 RMK AO2 T03010235
KRBO 222015Z AUTO 30007KT 10SM SCT031 SCT045 SCT055 31/24 A2989 RMK AO2 T03050235
KRBO 221955Z AUTO 29004KT 10SM SCT029 SCT036 BKN050 30/23 A2989 RMK AO2 T02990229
KRBO 221930Z AUTO 28007KT 10SM SCT025 SCT041 BKN050 30/23 A2991 RMK AO2 LTG DSNT SE T03000232
KRBO 221915Z AUTO 30009KT 10SM SCT027 SCT033 BKN041 30/23 A2991 RMK AO2 T02960232
KRBO 221855Z AUTO 27007KT 10SM BKN027 BKN033 BKN044 29/23 A2992 RMK AO2 T02920225
KRBO 221835Z AUTO 32007KT 10SM BKN025 29/23 A2992 RMK AO2 T02900231
KRBO 221815Z AUTO 31006KT 10SM SCT023 SCT029 29/23 A2992 RMK AO2 T02930232
KRBO 221755Z AUTO 31005KT 10SM CLR 29/24 A2993 RMK AO2 LTG DSNT NE T02910235 10291 20245
KRBO 221735Z AUTO 29009KT 10SM SCT019 29/23 A2994 RMK AO2 T02860233
KRBO 221715Z AUTO 30008KT 10SM CLR 28/23 A2994 RMK AO2 T02820232
KRBO 221655Z AUTO 26007KT 10SM CLR 28/23 A2995 RMK AO2 T02760232
KRBO 221635Z AUTO 27006KT 10SM CLR 28/23 A2995 RMK AO2 T02800232
KRBO 221615Z AUTO 26009KT 10SM SCT041 27/23 A2995 RMK AO2 T02740231
KRBO 221555Z AUTO 27007KT 10SM BKN043 27/23 A2995 RMK AO2 T02660231
KRBO 221535Z AUTO 25008KT 10SM SCT036 OVC041 26/23 A2995 RMK AO2 LTG DSNT W T02570227
KRBO 221515Z AUTO 26008KT 10SM OVC034 26/23 A2995 RMK AO2 T02550226
KRBO 221455Z AUTO 25009KT 10SM BKN034 26/23 A2994 RMK AO2 T02570229
KRBO 221435Z AUTO 24008KT 10SM CLR 25/23 A2993 RMK AO2 T02540231